Crazy Horse, South Dakota
Current Conditions -  °F | °C
As of 1:53 AM on Friday 31 Oct 2014 (Local Time) from KCUT Reporting Station
Moderate Fog Moderate Fog  
Wind Chill: 23°   Ceiling: 200
Heat Index: 28°   Visibility: 0.25mi
Dew Point: 26°   Wind: 5mph
Humidity: 92%   Direction: 70°ENE
Pressure: 30.38"   Gusts: NA
Location:  43.6653°N, 103.766°W
Report Text: KCUT 310753Z AUTO 07004KT 1/4SM FZFG VV002 M02/M03 A3038 RMK AO2 SLP293 I1002 T10221033
Loading
Personal Weather Stations






























Interactive Weather Map
Tropical Storm Tracking
New forecast layout! Learn more

10-Day Weather Forecast

Advertisements
Track Severe Weather on mobile